This is the latest recevied weather packets stored in our database for station/object W2DRT. If no packets are shown the sender has not sent any weather packets the latest 10 day(s).
| Time | Temp. | Humidity | Pressure | Rain* | Wind** | Luminosity | Snow |
|---|---|---|---|---|---|---|---|
| 1777437081 | 11.67° C | 57% | 1019.7 hPa | - | - | - | - |
| 1777435880 | 11.67° C | 56% | 1019.7 hPa | - | - | - | - |
| 1777432264 | 12.22° C | 55% | 1018.7 hPa | - | - | - | - |
| 1777425039 | 13.33° C | 56% | 1018.7 hPa | - | - | - | - |
| 1777422024 | 13.89° C | 54% | 1019.4 hPa | - | - | - | - |
| 1777411773 | 15.56° C | 50% | 1019.4 hPa | - | - | - | - |
| 1777411172 | 16.11° C | 48% | 1019.4 hPa | - | - | - | - |
| 1777408763 | 16.67° C | 46% | 1019.4 hPa | - | - | - | - |
| 1777408160 | 16.67° C | 46% | 1019 hPa | - | - | - | - |
| 1777407559 | 16.67° C | 45% | 1019.4 hPa | - | - | - | - |
| 1777406958 | 16.67° C | 45% | 1019.4 hPa | - | - | - | - |
| 1777406355 | 17.22° C | 45% | 1019.4 hPa | - | - | - | - |
| 1777404546 | 17.78° C | 45% | 1020.1 hPa | - | - | - | - |
| 1777403944 | 17.78° C | 45% | 1020.1 hPa | - | - | - | - |
| 1777397930 | 17.78° C | 45% | 1021.4 hPa | - | - | - | - |
| 1777397328 | 18.33° C | 45% | 1021.1 hPa | - | - | - | - |
| 1777396126 | 18.33° C | 46% | 1021.7 hPa | - | - | - | - |
| 1777390701 | 17.78° C | 49% | 1022.8 hPa | - | - | - | - |
| 1777390100 | 17.78° C | 50% | 1022.8 hPa | - | - | - | - |
| 1777389494 | 17.78° C | 51% | 1023.1 hPa | - | - | - | - |
| 1777387086 | 16.67° C | 55% | 1022.8 hPa | - | - | - | - |
| 1777381677 | 12.22° C | 71% | 1023.4 hPa | - | - | - | - |
| 1777379873 | 10.56° C | 76% | 1023.1 hPa | - | - | - | - |
| 1777379269 | 10° C | 77% | 1023.1 hPa | - | - | - | - |
| 1777378666 | 9.44° C | 79% | 1023.1 hPa | - | - | - | - |
* Rain since midnight (hover to see other rain measurements)
** Current wind speed in m/s (hover to see current wind gust speed)